sensor_id;sensor_type;location;lat;lon;timestamp;temperature;humidity
54202;DHT22;40108;53.152;5.844;2023-02-19T00:02:21;8.70;96.80
54202;DHT22;40108;53.152;5.844;2023-02-19T00:04:49;8.70;96.90
54202;DHT22;40108;53.152;5.844;2023-02-19T00:07:15;8.70;96.90
54202;DHT22;40108;53.152;5.844;2023-02-19T00:09:44;8.70;97.00
54202;DHT22;40108;53.152;5.844;2023-02-19T00:12:10;8.70;97.00
54202;DHT22;40108;53.152;5.844;2023-02-19T00:14:36;8.70;96.90
54202;DHT22;40108;53.152;5.844;2023-02-19T00:17:04;8.70;96.90
54202;DHT22;40108;53.152;5.844;2023-02-19T00:19:30;8.70;96.90
54202;DHT22;40108;53.152;5.844;2023-02-19T00:21:58;8.60;96.90
54202;DHT22;40108;53.152;5.844;2023-02-19T00:24:25;8.70;96.90
54202;DHT22;40108;53.152;5.844;2023-02-19T00:26:53;8.60;96.90
54202;DHT22;40108;53.152;5.844;2023-02-19T00:29:20;8.70;96.90
54202;DHT22;40108;53.152;5.844;2023-02-19T00:31:53;8.60;96.90
54202;DHT22;40108;53.152;5.844;2023-02-19T00:34:22;8.60;96.90
54202;DHT22;40108;53.152;5.844;2023-02-19T00:36:50;8.60;96.90
54202;DHT22;40108;53.152;5.844;2023-02-19T00:39:19;8.60;96.90
54202;DHT22;40108;53.152;5.844;2023-02-19T00:41:46;8.60;97.00
54202;DHT22;40108;53.152;5.844;2023-02-19T00:44:14;8.60;96.90
54202;DHT22;40108;53.152;5.844;2023-02-19T00:46:48;8.60;96.90
54202;DHT22;40108;53.152;5.844;2023-02-19T00:49:23;8.60;96.90
54202;DHT22;40108;53.152;5.844;2023-02-19T00:51:51;8.60;96.90
54202;DHT22;40108;53.152;5.844;2023-02-19T00:54:17;8.60;96.90
54202;DHT22;40108;53.152;5.844;2023-02-19T00:56:46;8.60;96.90
54202;DHT22;40108;53.152;5.844;2023-02-19T00:59:12;8.60;96.90
54202;DHT22;40108;53.152;5.844;2023-02-19T01:01:41;8.60;96.80
54202;DHT22;40108;53.152;5.844;2023-02-19T01:04:08;8.60;96.80
54202;DHT22;40108;53.152;5.844;2023-02-19T01:06:38;8.60;96.80
54202;DHT22;40108;53.152;5.844;2023-02-19T01:09:12;8.60;96.80
54202;DHT22;40108;53.152;5.844;2023-02-19T01:11:38;8.60;96.90
54202;DHT22;40108;53.152;5.844;2023-02-19T01:14:08;8.50;96.80
54202;DHT22;40108;53.152;5.844;2023-02-19T01:16:34;8.50;96.80
54202;DHT22;40108;53.152;5.844;2023-02-19T01:19:05;8.50;96.90
54202;DHT22;40108;53.152;5.844;2023-02-19T01:21:30;8.50;96.90
54202;DHT22;40108;53.152;5.844;2023-02-19T01:23:59;8.50;96.90
54202;DHT22;40108;53.152;5.844;2023-02-19T01:26:34;8.40;96.90
54202;DHT22;40108;53.152;5.844;2023-02-19T01:29:05;8.40;96.90
54202;DHT22;40108;53.152;5.844;2023-02-19T01:31:31;8.40;96.90
54202;DHT22;40108;53.152;5.844;2023-02-19T01:34:01;8.40;97.00
54202;DHT22;40108;53.152;5.844;2023-02-19T01:36:29;8.40;97.00
54202;DHT22;40108;53.152;5.844;2023-02-19T01:38:59;8.40;97.00
54202;DHT22;40108;53.152;5.844;2023-02-19T01:41:38;8.40;97.00
54202;DHT22;40108;53.152;5.844;2023-02-19T01:46:54;8.30;97.00
54202;DHT22;40108;53.152;5.844;2023-02-19T01:49:27;8.30;97.10
54202;DHT22;40108;53.152;5.844;2023-02-19T01:52:03;8.40;97.10
54202;DHT22;40108;53.152;5.844;2023-02-19T01:54:35;8.30;97.10
54202;DHT22;40108;53.152;5.844;2023-02-19T01:57:06;8.30;97.10
54202;DHT22;40108;53.152;5.844;2023-02-19T01:59:33;8.30;97.10
54202;DHT22;40108;53.152;5.844;2023-02-19T02:02:02;8.30;97.10
54202;DHT22;40108;53.152;5.844;2023-02-19T02:04:30;8.30;97.10
54202;DHT22;40108;53.152;5.844;2023-02-19T02:06:58;8.30;97.10
54202;DHT22;40108;53.152;5.844;2023-02-19T02:09:29;8.30;97.10
54202;DHT22;40108;53.152;5.844;2023-02-19T02:12:16;8.30;97.20
54202;DHT22;40108;53.152;5.844;2023-02-19T02:14:49;8.30;97.20
54202;DHT22;40108;53.152;5.844;2023-02-19T02:22:51;8.20;97.20
54202;DHT22;40108;53.152;5.844;2023-02-19T02:30:57;8.20;97.30
54202;DHT22;40108;53.152;5.844;2023-02-19T02:38:38;8.20;97.30
54202;DHT22;40108;53.152;5.844;2023-02-19T02:41:05;8.20;97.30
54202;DHT22;40108;53.152;5.844;2023-02-19T02:43:31;8.10;97.30
54202;DHT22;40108;53.152;5.844;2023-02-19T02:45:59;8.10;97.30
54202;DHT22;40108;53.152;5.844;2023-02-19T02:48:34;8.10;97.30
54202;DHT22;40108;53.152;5.844;2023-02-19T02:51:23;8.10;97.30
54202;DHT22;40108;53.152;5.844;2023-02-19T02:53:53;8.10;97.30
54202;DHT22;40108;53.152;5.844;2023-02-19T02:56:39;8.10;97.40
54202;DHT22;40108;53.152;5.844;2023-02-19T02:59:09;8.10;97.40
54202;DHT22;40108;53.152;5.844;2023-02-19T03:01:50;8.10;97.40
54202;DHT22;40108;53.152;5.844;2023-02-19T03:04:38;8.10;97.40
54202;DHT22;40108;53.152;5.844;2023-02-19T03:07:30;8.10;97.40
54202;DHT22;40108;53.152;5.844;2023-02-19T03:09:59;8.00;97.30
54202;DHT22;40108;53.152;5.844;2023-02-19T03:12:30;7.90;97.30
54202;DHT22;40108;53.152;5.844;2023-02-19T03:15:16;7.80;97.20
54202;DHT22;40108;53.152;5.844;2023-02-19T03:18:04;7.70;97.20
54202;DHT22;40108;53.152;5.844;2023-02-19T03:20:53;7.70;97.10
54202;DHT22;40108;53.152;5.844;2023-02-19T03:23:28;7.60;97.10
54202;DHT22;40108;53.152;5.844;2023-02-19T03:26:14;7.60;97.10
54202;DHT22;40108;53.152;5.844;2023-02-19T03:28:47;7.40;97.10
54202;DHT22;40108;53.152;5.844;2023-02-19T03:31:33;7.40;97.10
54202;DHT22;40108;53.152;5.844;2023-02-19T03:34:02;7.30;97.10
54202;DHT22;40108;53.152;5.844;2023-02-19T03:36:37;7.30;97.10
54202;DHT22;40108;53.152;5.844;2023-02-19T03:39:08;7.30;97.10
54202;DHT22;40108;53.152;5.844;2023-02-19T03:42:07;7.20;97.10
54202;DHT22;40108;53.152;5.844;2023-02-19T03:44:49;7.20;97.10
54202;DHT22;40108;53.152;5.844;2023-02-19T03:47:27;7.20;97.10
54202;DHT22;40108;53.152;5.844;2023-02-19T03:50:20;7.10;97.10
54202;DHT22;40108;53.152;5.844;2023-02-19T03:53:12;7.10;97.20
54202;DHT22;40108;53.152;5.844;2023-02-19T03:59:09;7.10;97.10
54202;DHT22;40108;53.152;5.844;2023-02-19T04:01:42;7.00;97.10
54202;DHT22;40108;53.152;5.844;2023-02-19T04:04:17;6.90;97.10
54202;DHT22;40108;53.152;5.844;2023-02-19T04:06:54;6.90;97.10
54202;DHT22;40108;53.152;5.844;2023-02-19T04:09:27;6.90;97.10
54202;DHT22;40108;53.152;5.844;2023-02-19T04:11:54;6.90;97.10
54202;DHT22;40108;53.152;5.844;2023-02-19T04:14:26;6.80;97.00
54202;DHT22;40108;53.152;5.844;2023-02-19T04:16:59;6.70;97.10
54202;DHT22;40108;53.152;5.844;2023-02-19T04:19:36;6.70;97.00
54202;DHT22;40108;53.152;5.844;2023-02-19T04:22:05;6.70;97.10
54202;DHT22;40108;53.152;5.844;2023-02-19T04:24:45;6.70;97.00
54202;DHT22;40108;53.152;5.844;2023-02-19T04:27:17;6.60;97.00
54202;DHT22;40108;53.152;5.844;2023-02-19T04:29:45;6.60;97.10
54202;DHT22;40108;53.152;5.844;2023-02-19T04:32:12;6.60;97.00
54202;DHT22;40108;53.152;5.844;2023-02-19T04:34:38;6.60;97.00
54202;DHT22;40108;53.152;5.844;2023-02-19T04:37:06;6.50;97.00
54202;DHT22;40108;53.152;5.844;2023-02-19T04:39:32;6.50;97.00
54202;DHT22;40108;53.152;5.844;2023-02-19T04:41:58;6.50;97.10
54202;DHT22;40108;53.152;5.844;2023-02-19T04:44:24;6.50;97.10
54202;DHT22;40108;53.152;5.844;2023-02-19T04:46:50;6.50;97.00
54202;DHT22;40108;53.152;5.844;2023-02-19T04:49:16;6.50;97.00
54202;DHT22;40108;53.152;5.844;2023-02-19T04:51:41;6.50;97.00
54202;DHT22;40108;53.152;5.844;2023-02-19T04:54:07;6.40;97.10
54202;DHT22;40108;53.152;5.844;2023-02-19T04:56:33;6.40;97.10
54202;DHT22;40108;53.152;5.844;2023-02-19T04:58:59;6.40;97.00
54202;DHT22;40108;53.152;5.844;2023-02-19T05:01:25;6.40;97.00
54202;DHT22;40108;53.152;5.844;2023-02-19T05:03:51;6.40;97.00
54202;DHT22;40108;53.152;5.844;2023-02-19T05:06:17;6.40;97.10
54202;DHT22;40108;53.152;5.844;2023-02-19T05:08:43;6.40;97.00
54202;DHT22;40108;53.152;5.844;2023-02-19T05:11:13;6.40;97.10
54202;DHT22;40108;53.152;5.844;2023-02-19T05:13:39;6.30;97.00
54202;DHT22;40108;53.152;5.844;2023-02-19T05:16:10;6.30;97.00
54202;DHT22;40108;53.152;5.844;2023-02-19T05:18:39;6.30;97.00
54202;DHT22;40108;53.152;5.844;2023-02-19T05:21:08;6.20;97.00
54202;DHT22;40108;53.152;5.844;2023-02-19T05:23:37;6.20;97.00
54202;DHT22;40108;53.152;5.844;2023-02-19T05:26:19;6.20;97.00
54202;DHT22;40108;53.152;5.844;2023-02-19T05:28:49;6.20;97.00
54202;DHT22;40108;53.152;5.844;2023-02-19T05:31:15;6.20;97.00
54202;DHT22;40108;53.152;5.844;2023-02-19T05:33:44;6.20;97.00
54202;DHT22;40108;53.152;5.844;2023-02-19T05:36:15;6.20;97.00
54202;DHT22;40108;53.152;5.844;2023-02-19T05:38:41;6.20;97.00
54202;DHT22;40108;53.152;5.844;2023-02-19T05:41:09;6.20;96.90
54202;DHT22;40108;53.152;5.844;2023-02-19T05:43:37;6.10;96.90
54202;DHT22;40108;53.152;5.844;2023-02-19T05:46:04;6.00;96.90
54202;DHT22;40108;53.152;5.844;2023-02-19T05:48:33;6.10;97.00
54202;DHT22;40108;53.152;5.844;2023-02-19T05:51:04;6.00;97.00
54202;DHT22;40108;53.152;5.844;2023-02-19T05:53:35;6.10;97.00
54202;DHT22;40108;53.152;5.844;2023-02-19T05:58:42;6.00;97.00
54202;DHT22;40108;53.152;5.844;2023-02-19T06:01:15;6.00;97.00
54202;DHT22;40108;53.152;5.844;2023-02-19T06:03:41;6.00;97.00
54202;DHT22;40108;53.152;5.844;2023-02-19T06:06:08;6.00;96.90
54202;DHT22;40108;53.152;5.844;2023-02-19T06:08:36;5.90;97.00
54202;DHT22;40108;53.152;5.844;2023-02-19T06:11:02;5.90;97.00
54202;DHT22;40108;53.152;5.844;2023-02-19T06:13:28;5.90;97.00
54202;DHT22;40108;53.152;5.844;2023-02-19T06:15:54;5.90;97.00
54202;DHT22;40108;53.152;5.844;2023-02-19T06:18:20;5.90;97.00
54202;DHT22;40108;53.152;5.844;2023-02-19T06:20:46;5.80;97.00
54202;DHT22;40108;53.152;5.844;2023-02-19T06:23:12;5.80;96.90
54202;DHT22;40108;53.152;5.844;2023-02-19T06:25:43;5.80;96.90
54202;DHT22;40108;53.152;5.844;2023-02-19T06:28:11;5.70;96.90
54202;DHT22;40108;53.152;5.844;2023-02-19T06:30:39;5.80;96.90
54202;DHT22;40108;53.152;5.844;2023-02-19T06:33:07;5.70;96.90
54202;DHT22;40108;53.152;5.844;2023-02-19T06:35:35;5.70;96.90
54202;DHT22;40108;53.152;5.844;2023-02-19T06:38:01;5.70;96.80
54202;DHT22;40108;53.152;5.844;2023-02-19T06:40:30;5.70;96.80
54202;DHT22;40108;53.152;5.844;2023-02-19T06:42:56;5.70;96.80
54202;DHT22;40108;53.152;5.844;2023-02-19T06:45:21;5.70;96.80
54202;DHT22;40108;53.152;5.844;2023-02-19T06:47:47;5.70;96.80
54202;DHT22;40108;53.152;5.844;2023-02-19T06:50:22;5.70;96.80
54202;DHT22;40108;53.152;5.844;2023-02-19T06:52:48;5.70;96.80
54202;DHT22;40108;53.152;5.844;2023-02-19T06:55:17;5.70;96.80
54202;DHT22;40108;53.152;5.844;2023-02-19T06:57:45;5.70;96.80
54202;DHT22;40108;53.152;5.844;2023-02-19T07:00:11;5.70;96.80
54202;DHT22;40108;53.152;5.844;2023-02-19T07:02:37;5.70;96.80
54202;DHT22;40108;53.152;5.844;2023-02-19T07:05:03;5.70;96.80
54202;DHT22;40108;53.152;5.844;2023-02-19T07:07:29;5.70;96.70
54202;DHT22;40108;53.152;5.844;2023-02-19T07:09:55;5.70;96.70
54202;DHT22;40108;53.152;5.844;2023-02-19T07:12:23;5.70;96.70
54202;DHT22;40108;53.152;5.844;2023-02-19T07:14:49;5.70;96.70
54202;DHT22;40108;53.152;5.844;2023-02-19T07:17:14;5.70;96.70
54202;DHT22;40108;53.152;5.844;2023-02-19T07:19:40;5.70;96.60
54202;DHT22;40108;53.152;5.844;2023-02-19T07:22:06;5.70;96.60
54202;DHT22;40108;53.152;5.844;2023-02-19T07:24:32;5.70;96.60
54202;DHT22;40108;53.152;5.844;2023-02-19T07:26:58;5.70;96.60
54202;DHT22;40108;53.152;5.844;2023-02-19T07:29:23;5.70;96.60
54202;DHT22;40108;53.152;5.844;2023-02-19T07:31:49;5.70;96.50
54202;DHT22;40108;53.152;5.844;2023-02-19T07:34:17;5.70;96.40
54202;DHT22;40108;53.152;5.844;2023-02-19T07:36:43;5.70;96.40
54202;DHT22;40108;53.152;5.844;2023-02-19T07:39:11;5.60;96.10
54202;DHT22;40108;53.152;5.844;2023-02-19T07:41:37;5.60;95.90
54202;DHT22;40108;53.152;5.844;2023-02-19T07:44:06;5.50;95.80
54202;DHT22;40108;53.152;5.844;2023-02-19T07:46:40;5.50;95.70
54202;DHT22;40108;53.152;5.844;2023-02-19T07:49:06;5.50;95.70
54202;DHT22;40108;53.152;5.844;2023-02-19T07:51:31;5.50;95.70
54202;DHT22;40108;53.152;5.844;2023-02-19T07:53:57;5.50;95.70
54202;DHT22;40108;53.152;5.844;2023-02-19T07:56:23;5.50;95.50
54202;DHT22;40108;53.152;5.844;2023-02-19T07:58:52;5.50;95.40
54202;DHT22;40108;53.152;5.844;2023-02-19T08:01:24;5.50;95.30
54202;DHT22;40108;53.152;5.844;2023-02-19T08:04:40;5.50;95.40
54202;DHT22;40108;53.152;5.844;2023-02-19T08:07:19;5.50;95.40
54202;DHT22;40108;53.152;5.844;2023-02-19T08:10:33;5.50;95.40
54202;DHT22;40108;53.152;5.844;2023-02-19T08:13:18;5.50;95.40
54202;DHT22;40108;53.152;5.844;2023-02-19T08:15:51;5.60;95.50
54202;DHT22;40108;53.152;5.844;2023-02-19T08:18:28;5.70;95.50
54202;DHT22;40108;53.152;5.844;2023-02-19T08:21:19;5.70;95.60
54202;DHT22;40108;53.152;5.844;2023-02-19T08:23:52;5.80;95.60
54202;DHT22;40108;53.152;5.844;2023-02-19T08:26:19;5.90;95.60
54202;DHT22;40108;53.152;5.844;2023-02-19T08:28:51;5.90;95.60
54202;DHT22;40108;53.152;5.844;2023-02-19T08:31:17;6.00;95.60
54202;DHT22;40108;53.152;5.844;2023-02-19T08:33:45;6.10;95.50
54202;DHT22;40108;53.152;5.844;2023-02-19T08:36:11;6.20;95.50
54202;DHT22;40108;53.152;5.844;2023-02-19T08:38:42;6.30;95.50
54202;DHT22;40108;53.152;5.844;2023-02-19T08:41:10;6.40;95.50
54202;DHT22;40108;53.152;5.844;2023-02-19T08:43:39;6.60;95.60
54202;DHT22;40108;53.152;5.844;2023-02-19T08:46:09;6.90;96.00
54202;DHT22;40108;53.152;5.844;2023-02-19T08:48:42;7.20;96.00
54202;DHT22;40108;53.152;5.844;2023-02-19T08:51:14;7.60;95.90
54202;DHT22;40108;53.152;5.844;2023-02-19T08:53:52;7.90;95.70
54202;DHT22;40108;53.152;5.844;2023-02-19T09:01:02;8.40;94.20
54202;DHT22;40108;53.152;5.844;2023-02-19T09:03:37;8.50;93.30
54202;DHT22;40108;53.152;5.844;2023-02-19T09:06:06;8.40;92.70
54202;DHT22;40108;53.152;5.844;2023-02-19T09:08:32;8.50;92.90
54202;DHT22;40108;53.152;5.844;2023-02-19T09:11:16;8.50;92.30
54202;DHT22;40108;53.152;5.844;2023-02-19T09:22:18;8.30;92.20
54202;DHT22;40108;53.152;5.844;2023-02-19T09:38:56;8.20;91.30
54202;DHT22;40108;53.152;5.844;2023-02-19T10:03:20;8.70;87.70
54202;DHT22;40108;53.152;5.844;2023-02-19T10:05:46;8.70;87.80
54202;DHT22;40108;53.152;5.844;2023-02-19T10:08:17;8.60;88.40
54202;DHT22;40108;53.152;5.844;2023-02-19T10:10:54;8.50;88.00
54202;DHT22;40108;53.152;5.844;2023-02-19T10:13:23;8.40;88.60
54202;DHT22;40108;53.152;5.844;2023-02-19T10:16:03;8.30;88.30
54202;DHT22;40108;53.152;5.844;2023-02-19T10:21:54;8.20;88.50
54202;DHT22;40108;53.152;5.844;2023-02-19T10:30:30;8.00;89.10
54202;DHT22;40108;53.152;5.844;2023-02-19T10:33:09;8.00;88.80
54202;DHT22;40108;53.152;5.844;2023-02-19T10:39:18;8.00;88.80
54202;DHT22;40108;53.152;5.844;2023-02-19T10:41:48;8.00;88.90
54202;DHT22;40108;53.152;5.844;2023-02-19T10:44:22;8.10;88.70
54202;DHT22;40108;53.152;5.844;2023-02-19T10:46:53;8.20;87.90
54202;DHT22;40108;53.152;5.844;2023-02-19T10:49:32;8.20;87.80
54202;DHT22;40108;53.152;5.844;2023-02-19T10:52:11;8.20;88.80
54202;DHT22;40108;53.152;5.844;2023-02-19T10:54:45;8.30;88.80
54202;DHT22;40108;53.152;5.844;2023-02-19T10:59:48;8.70;88.60
54202;DHT22;40108;53.152;5.844;2023-02-19T11:02:16;8.90;87.30
54202;DHT22;40108;53.152;5.844;2023-02-19T11:07:29;9.20;84.90
54202;DHT22;40108;53.152;5.844;2023-02-19T11:09:55;9.30;84.20
54202;DHT22;40108;53.152;5.844;2023-02-19T11:12:28;9.50;83.70
54202;DHT22;40108;53.152;5.844;2023-02-19T11:20:54;11.10;85.30
54202;DHT22;40108;53.152;5.844;2023-02-19T11:23:31;11.40;84.30
54202;DHT22;40108;53.152;5.844;2023-02-19T11:26:02;11.40;81.90
54202;DHT22;40108;53.152;5.844;2023-02-19T11:28:35;11.40;81.40
54202;DHT22;40108;53.152;5.844;2023-02-19T11:31:22;11.10;80.90
54202;DHT22;40108;53.152;5.844;2023-02-19T11:36:41;11.40;81.20
54202;DHT22;40108;53.152;5.844;2023-02-19T11:53:30;12.30;75.80
54202;DHT22;40108;53.152;5.844;2023-02-19T11:56:23;12.20;77.40
54202;DHT22;40108;53.152;5.844;2023-02-19T12:13:40;11.70;78.50
54202;DHT22;40108;53.152;5.844;2023-02-19T12:16:29;11.70;79.30
54202;DHT22;40108;53.152;5.844;2023-02-19T12:30:40;11.40;75.50
54202;DHT22;40108;53.152;5.844;2023-02-19T12:33:54;11.30;76.40
54202;DHT22;40108;53.152;5.844;2023-02-19T12:44:54;11.10;77.10
54202;DHT22;40108;53.152;5.844;2023-02-19T12:47:28;11.10;76.60
54202;DHT22;40108;53.152;5.844;2023-02-19T12:50:17;10.80;72.20
54202;DHT22;40108;53.152;5.844;2023-02-19T12:52:48;10.70;74.90
54202;DHT22;40108;53.152;5.844;2023-02-19T12:55:24;10.50;73.70
54202;DHT22;40108;53.152;5.844;2023-02-19T12:57:56;10.40;74.30
54202;DHT22;40108;53.152;5.844;2023-02-19T13:00:41;10.30;75.00
54202;DHT22;40108;53.152;5.844;2023-02-19T13:06:19;10.10;76.20
54202;DHT22;40108;53.152;5.844;2023-02-19T13:12:11;9.90;75.80
54202;DHT22;40108;53.152;5.844;2023-02-19T13:14:48;9.80;76.90
54202;DHT22;40108;53.152;5.844;2023-02-19T13:20:25;9.70;77.20
54202;DHT22;40108;53.152;5.844;2023-02-19T13:23:15;9.70;78.30
54202;DHT22;40108;53.152;5.844;2023-02-19T13:26:30;9.60;77.50
54202;DHT22;40108;53.152;5.844;2023-02-19T13:38:00;9.30;78.40
54202;DHT22;40108;53.152;5.844;2023-02-19T13:40:41;9.20;79.10
54202;DHT22;40108;53.152;5.844;2023-02-19T13:43:34;9.20;79.00
54202;DHT22;40108;53.152;5.844;2023-02-19T13:46:07;9.20;79.40
54202;DHT22;40108;53.152;5.844;2023-02-19T13:48:38;9.20;79.80
54202;DHT22;40108;53.152;5.844;2023-02-19T13:54:00;9.10;80.10
54202;DHT22;40108;53.152;5.844;2023-02-19T14:04:25;9.10;79.50
54202;DHT22;40108;53.152;5.844;2023-02-19T14:14:36;8.90;79.00
54202;DHT22;40108;53.152;5.844;2023-02-19T14:28:20;8.70;79.80
54202;DHT22;40108;53.152;5.844;2023-02-19T14:31:09;8.70;78.70
54202;DHT22;40108;53.152;5.844;2023-02-19T14:33:59;8.70;79.30
54202;DHT22;40108;53.152;5.844;2023-02-19T14:41:43;8.50;79.60
54202;DHT22;40108;53.152;5.844;2023-02-19T14:44:20;8.40;80.30
54202;DHT22;40108;53.152;5.844;2023-02-19T14:49:29;8.30;80.40
54202;DHT22;40108;53.152;5.844;2023-02-19T14:54:54;8.20;80.40
54202;DHT22;40108;53.152;5.844;2023-02-19T14:57:42;8.20;80.40
54202;DHT22;40108;53.152;5.844;2023-02-19T15:00:33;8.10;80.80
54202;DHT22;40108;53.152;5.844;2023-02-19T15:03:02;8.10;81.30
54202;DHT22;40108;53.152;5.844;2023-02-19T15:05:31;8.00;81.40
54202;DHT22;40108;53.152;5.844;2023-02-19T15:08:02;7.90;81.70
54202;DHT22;40108;53.152;5.844;2023-02-19T15:10:33;7.90;81.90
54202;DHT22;40108;53.152;5.844;2023-02-19T15:13:08;7.90;82.10
54202;DHT22;40108;53.152;5.844;2023-02-19T15:15:43;7.90;81.90
54202;DHT22;40108;53.152;5.844;2023-02-19T15:18:21;8.00;82.10
54202;DHT22;40108;53.152;5.844;2023-02-19T15:20:57;8.00;82.00
54202;DHT22;40108;53.152;5.844;2023-02-19T15:23:25;7.90;82.10
54202;DHT22;40108;53.152;5.844;2023-02-19T15:25:57;7.90;81.70
54202;DHT22;40108;53.152;5.844;2023-02-19T15:28:33;7.90;82.00
54202;DHT22;40108;53.152;5.844;2023-02-19T15:33:27;7.80;81.90
54202;DHT22;40108;53.152;5.844;2023-02-19T15:36:00;7.80;81.70
54202;DHT22;40108;53.152;5.844;2023-02-19T15:38:29;7.70;82.00
54202;DHT22;40108;53.152;5.844;2023-02-19T15:40:58;7.70;82.30
54202;DHT22;40108;53.152;5.844;2023-02-19T15:43:44;7.60;82.40
54202;DHT22;40108;53.152;5.844;2023-02-19T15:46:23;7.60;82.70
54202;DHT22;40108;53.152;5.844;2023-02-19T15:49:12;7.60;82.80
54202;DHT22;40108;53.152;5.844;2023-02-19T15:51:46;7.50;82.90
54202;DHT22;40108;53.152;5.844;2023-02-19T15:54:24;7.50;83.10
54202;DHT22;40108;53.152;5.844;2023-02-19T15:56:56;7.40;83.20
54202;DHT22;40108;53.152;5.844;2023-02-19T15:59:38;7.30;83.20
54202;DHT22;40108;53.152;5.844;2023-02-19T16:02:11;7.20;83.40
54202;DHT22;40108;53.152;5.844;2023-02-19T16:04:42;7.20;83.70
54202;DHT22;40108;53.152;5.844;2023-02-19T16:07:41;7.20;83.90
54202;DHT22;40108;53.152;5.844;2023-02-19T16:10:22;7.20;84.20
54202;DHT22;40108;53.152;5.844;2023-02-19T16:12:59;7.10;84.40
54202;DHT22;40108;53.152;5.844;2023-02-19T16:15:27;7.10;84.70
54202;DHT22;40108;53.152;5.844;2023-02-19T16:17:53;7.00;84.90
54202;DHT22;40108;53.152;5.844;2023-02-19T16:20:31;7.00;84.90
54202;DHT22;40108;53.152;5.844;2023-02-19T16:23:24;7.00;85.30
54202;DHT22;40108;53.152;5.844;2023-02-19T16:26:00;6.90;85.50
54202;DHT22;40108;53.152;5.844;2023-02-19T16:35:46;6.90;85.70
54202;DHT22;40108;53.152;5.844;2023-02-19T16:38:20;6.90;85.80
54202;DHT22;40108;53.152;5.844;2023-02-19T16:43:38;6.80;86.00
54202;DHT22;40108;53.152;5.844;2023-02-19T16:46:11;6.80;86.20
54202;DHT22;40108;53.152;5.844;2023-02-19T16:48:47;6.70;86.20
54202;DHT22;40108;53.152;5.844;2023-02-19T16:51:25;6.70;86.40
54202;DHT22;40108;53.152;5.844;2023-02-19T16:53:51;6.60;86.50
54202;DHT22;40108;53.152;5.844;2023-02-19T16:56:19;6.50;86.40
54202;DHT22;40108;53.152;5.844;2023-02-19T16:58:48;6.40;86.50
54202;DHT22;40108;53.152;5.844;2023-02-19T17:01:17;6.40;86.70
54202;DHT22;40108;53.152;5.844;2023-02-19T17:03:43;6.30;86.80
54202;DHT22;40108;53.152;5.844;2023-02-19T17:06:10;6.20;86.80
54202;DHT22;40108;53.152;5.844;2023-02-19T17:08:40;6.20;86.90
54202;DHT22;40108;53.152;5.844;2023-02-19T17:11:14;6.20;87.10
54202;DHT22;40108;53.152;5.844;2023-02-19T17:13:41;6.10;87.30
54202;DHT22;40108;53.152;5.844;2023-02-19T17:16:20;6.10;87.30
54202;DHT22;40108;53.152;5.844;2023-02-19T17:18:47;6.10;87.40
54202;DHT22;40108;53.152;5.844;2023-02-19T17:21:21;6.00;87.50
54202;DHT22;40108;53.152;5.844;2023-02-19T17:23:50;6.00;87.60
54202;DHT22;40108;53.152;5.844;2023-02-19T17:26:18;5.90;87.70
54202;DHT22;40108;53.152;5.844;2023-02-19T17:28:44;5.90;87.70
54202;DHT22;40108;53.152;5.844;2023-02-19T17:31:10;5.90;87.90
54202;DHT22;40108;53.152;5.844;2023-02-19T17:33:37;5.90;88.20
54202;DHT22;40108;53.152;5.844;2023-02-19T17:36:06;5.90;88.10
54202;DHT22;40108;53.152;5.844;2023-02-19T17:38:34;6.00;88.30
54202;DHT22;40108;53.152;5.844;2023-02-19T17:41:00;6.00;88.30
54202;DHT22;40108;53.152;5.844;2023-02-19T17:43:26;6.00;88.40
54202;DHT22;40108;53.152;5.844;2023-02-19T17:45:52;6.10;88.60
54202;DHT22;40108;53.152;5.844;2023-02-19T17:48:17;6.10;88.50
54202;DHT22;40108;53.152;5.844;2023-02-19T17:50:46;6.10;88.50
54202;DHT22;40108;53.152;5.844;2023-02-19T17:53:13;6.10;88.50
54202;DHT22;40108;53.152;5.844;2023-02-19T17:55:39;6.10;88.40
54202;DHT22;40108;53.152;5.844;2023-02-19T17:58:05;6.10;88.30
54202;DHT22;40108;53.152;5.844;2023-02-19T18:00:31;6.10;88.10
54202;DHT22;40108;53.152;5.844;2023-02-19T18:02:57;6.20;88.00
54202;DHT22;40108;53.152;5.844;2023-02-19T18:05:25;6.20;87.70
54202;DHT22;40108;53.152;5.844;2023-02-19T18:07:51;6.20;87.40
54202;DHT22;40108;53.152;5.844;2023-02-19T18:10:20;6.10;87.10
54202;DHT22;40108;53.152;5.844;2023-02-19T18:12:48;6.20;86.90
54202;DHT22;40108;53.152;5.844;2023-02-19T18:15:22;6.10;86.80
54202;DHT22;40108;53.152;5.844;2023-02-19T18:17:49;6.10;86.70
54202;DHT22;40108;53.152;5.844;2023-02-19T18:20:27;6.10;86.60
54202;DHT22;40108;53.152;5.844;2023-02-19T18:22:56;6.00;86.60
54202;DHT22;40108;53.152;5.844;2023-02-19T18:25:27;6.00;86.40
54202;DHT22;40108;53.152;5.844;2023-02-19T18:27:53;6.00;86.40
54202;DHT22;40108;53.152;5.844;2023-02-19T18:30:21;6.00;86.40
54202;DHT22;40108;53.152;5.844;2023-02-19T18:32:54;5.90;86.40
54202;DHT22;40108;53.152;5.844;2023-02-19T18:35:21;5.90;86.40
54202;DHT22;40108;53.152;5.844;2023-02-19T18:37:51;5.90;86.40
54202;DHT22;40108;53.152;5.844;2023-02-19T18:40:24;5.90;86.30
54202;DHT22;40108;53.152;5.844;2023-02-19T18:42:50;5.90;86.30
54202;DHT22;40108;53.152;5.844;2023-02-19T18:45:16;5.90;86.40
54202;DHT22;40108;53.152;5.844;2023-02-19T18:47:47;5.90;86.40
54202;DHT22;40108;53.152;5.844;2023-02-19T18:50:24;5.90;86.40
54202;DHT22;40108;53.152;5.844;2023-02-19T18:52:50;5.80;86.30
54202;DHT22;40108;53.152;5.844;2023-02-19T18:55:16;5.80;86.40
54202;DHT22;40108;53.152;5.844;2023-02-19T18:57:45;5.80;86.50
54202;DHT22;40108;53.152;5.844;2023-02-19T19:00:16;5.80;86.50
54202;DHT22;40108;53.152;5.844;2023-02-19T19:02:43;5.80;86.60
54202;DHT22;40108;53.152;5.844;2023-02-19T19:05:08;5.80;86.80
54202;DHT22;40108;53.152;5.844;2023-02-19T19:07:34;5.80;86.90
54202;DHT22;40108;53.152;5.844;2023-02-19T19:10:00;5.80;87.10
54202;DHT22;40108;53.152;5.844;2023-02-19T19:12:26;5.70;87.20
54202;DHT22;40108;53.152;5.844;2023-02-19T19:14:51;5.80;87.40
54202;DHT22;40108;53.152;5.844;2023-02-19T19:17:17;5.80;87.50
54202;DHT22;40108;53.152;5.844;2023-02-19T19:19:50;5.80;87.60
54202;DHT22;40108;53.152;5.844;2023-02-19T19:22:16;5.80;87.60
54202;DHT22;40108;53.152;5.844;2023-02-19T19:24:47;5.70;87.80
54202;DHT22;40108;53.152;5.844;2023-02-19T19:27:13;5.80;87.90
54202;DHT22;40108;53.152;5.844;2023-02-19T19:29:42;5.80;88.10
54202;DHT22;40108;53.152;5.844;2023-02-19T19:32:10;5.80;88.10
54202;DHT22;40108;53.152;5.844;2023-02-19T19:34:36;5.80;88.10
54202;DHT22;40108;53.152;5.844;2023-02-19T19:37:02;5.80;88.10
54202;DHT22;40108;53.152;5.844;2023-02-19T19:39:28;5.70;88.30
54202;DHT22;40108;53.152;5.844;2023-02-19T19:41:55;5.70;88.50
54202;DHT22;40108;53.152;5.844;2023-02-19T19:44:24;5.70;88.70
54202;DHT22;40108;53.152;5.844;2023-02-19T19:46:57;5.70;88.80
54202;DHT22;40108;53.152;5.844;2023-02-19T19:49:23;5.60;88.90
54202;DHT22;40108;53.152;5.844;2023-02-19T19:51:51;5.60;88.90
54202;DHT22;40108;53.152;5.844;2023-02-19T19:54:19;5.50;89.10
54202;DHT22;40108;53.152;5.844;2023-02-19T19:56:46;5.40;89.40